sensor_id;sensor_type;location;lat;lon;timestamp;P1;durP1;ratioP1;P2;durP2;ratioP2
27706;SDS011;36332;51.384;0.040;2022-12-07T00:01:36;35.38;;;14.27;;
27706;SDS011;36332;51.384;0.040;2022-12-07T00:04:07;33.60;;;13.98;;
27706;SDS011;36332;51.384;0.040;2022-12-07T00:06:41;26.95;;;14.00;;
27706;SDS011;36332;51.384;0.040;2022-12-07T00:09:16;24.75;;;11.40;;
27706;SDS011;36332;51.384;0.040;2022-12-07T00:11:47;32.67;;;12.77;;
27706;SDS011;36332;51.384;0.040;2022-12-07T00:14:17;29.30;;;12.85;;
27706;SDS011;36332;51.384;0.040;2022-12-07T00:16:46;31.92;;;12.23;;
27706;SDS011;36332;51.384;0.040;2022-12-07T00:19:17;33.40;;;13.27;;
27706;SDS011;36332;51.384;0.040;2022-12-07T00:21:45;29.25;;;12.73;;
27706;SDS011;36332;51.384;0.040;2022-12-07T00:24:13;28.92;;;11.32;;
27706;SDS011;36332;51.384;0.040;2022-12-07T00:26:42;28.77;;;13.20;;
27706;SDS011;36332;51.384;0.040;2022-12-07T00:31:46;28.65;;;12.27;;
27706;SDS011;36332;51.384;0.040;2022-12-07T00:34:15;29.35;;;13.98;;
27706;SDS011;36332;51.384;0.040;2022-12-07T00:36:46;34.10;;;13.07;;
27706;SDS011;36332;51.384;0.040;2022-12-07T00:39:15;30.17;;;12.05;;
27706;SDS011;36332;51.384;0.040;2022-12-07T00:41:43;31.70;;;12.02;;
27706;SDS011;36332;51.384;0.040;2022-12-07T00:44:11;28.33;;;12.13;;
27706;SDS011;36332;51.384;0.040;2022-12-07T00:46:39;33.33;;;13.15;;
27706;SDS011;36332;51.384;0.040;2022-12-07T00:49:07;36.15;;;13.93;;
27706;SDS011;36332;51.384;0.040;2022-12-07T00:51:35;27.58;;;11.13;;
27706;SDS011;36332;51.384;0.040;2022-12-07T00:54:03;29.13;;;11.88;;
27706;SDS011;36332;51.384;0.040;2022-12-07T00:56:32;34.83;;;11.82;;
27706;SDS011;36332;51.384;0.040;2022-12-07T00:59:00;24.95;;;11.30;;
27706;SDS011;36332;51.384;0.040;2022-12-07T01:01:34;36.00;;;12.25;;
27706;SDS011;36332;51.384;0.040;2022-12-07T01:04:04;32.58;;;12.15;;
27706;SDS011;36332;51.384;0.040;2022-12-07T01:06:32;30.60;;;11.27;;
27706;SDS011;36332;51.384;0.040;2022-12-07T01:09:00;28.73;;;12.35;;
27706;SDS011;36332;51.384;0.040;2022-12-07T01:11:29;34.03;;;12.85;;
27706;SDS011;36332;51.384;0.040;2022-12-07T01:13:58;27.23;;;12.25;;
27706;SDS011;36332;51.384;0.040;2022-12-07T01:16:29;25.90;;;11.82;;
27706;SDS011;36332;51.384;0.040;2022-12-07T01:18:58;33.65;;;12.55;;
27706;SDS011;36332;51.384;0.040;2022-12-07T01:21:29;40.60;;;12.35;;
27706;SDS011;36332;51.384;0.040;2022-12-07T01:24:02;26.45;;;12.32;;
27706;SDS011;36332;51.384;0.040;2022-12-07T01:26:31;33.53;;;11.82;;
27706;SDS011;36332;51.384;0.040;2022-12-07T01:28:59;32.97;;;12.30;;
27706;SDS011;36332;51.384;0.040;2022-12-07T01:31:28;30.55;;;11.02;;
27706;SDS011;36332;51.384;0.040;2022-12-07T01:33:57;31.08;;;11.80;;
27706;SDS011;36332;51.384;0.040;2022-12-07T01:36:29;25.42;;;10.57;;
27706;SDS011;36332;51.384;0.040;2022-12-07T01:38:59;31.10;;;12.02;;
27706;SDS011;36332;51.384;0.040;2022-12-07T01:41:30;42.95;;;13.00;;
27706;SDS011;36332;51.384;0.040;2022-12-07T01:46:59;27.30;;;10.00;;
27706;SDS011;36332;51.384;0.040;2022-12-07T01:52:16;24.75;;;11.07;;
27706;SDS011;36332;51.384;0.040;2022-12-07T01:54:54;29.75;;;12.07;;
27706;SDS011;36332;51.384;0.040;2022-12-07T01:57:26;25.42;;;10.85;;
27706;SDS011;36332;51.384;0.040;2022-12-07T01:59:54;24.48;;;12.02;;
27706;SDS011;36332;51.384;0.040;2022-12-07T02:02:27;26.85;;;11.95;;
27706;SDS011;36332;51.384;0.040;2022-12-07T02:04:59;30.63;;;12.48;;
27706;SDS011;36332;51.384;0.040;2022-12-07T02:07:28;26.30;;;12.52;;
27706;SDS011;36332;51.384;0.040;2022-12-07T02:10:11;26.05;;;11.77;;
27706;SDS011;36332;51.384;0.040;2022-12-07T02:12:49;27.52;;;10.93;;
27706;SDS011;36332;51.384;0.040;2022-12-07T02:15:21;31.50;;;12.07;;
27706;SDS011;36332;51.384;0.040;2022-12-07T02:18:16;20.58;;;11.85;;
27706;SDS011;36332;51.384;0.040;2022-12-07T02:21:15;32.63;;;11.70;;
27706;SDS011;36332;51.384;0.040;2022-12-07T02:32:40;35.05;;;15.40;;
27706;SDS011;36332;51.384;0.040;2022-12-07T02:35:24;30.17;;;12.82;;
27706;SDS011;36332;51.384;0.040;2022-12-07T02:38:20;31.60;;;12.48;;
27706;SDS011;36332;51.384;0.040;2022-12-07T02:41:12;30.45;;;13.88;;
27706;SDS011;36332;51.384;0.040;2022-12-07T02:44:00;32.15;;;13.50;;
27706;SDS011;36332;51.384;0.040;2022-12-07T02:46:42;29.20;;;14.87;;
27706;SDS011;36332;51.384;0.040;2022-12-07T02:49:13;36.30;;;13.07;;
27706;SDS011;36332;51.384;0.040;2022-12-07T02:51:43;36.03;;;13.50;;
27706;SDS011;36332;51.384;0.040;2022-12-07T02:54:13;37.67;;;14.57;;
27706;SDS011;36332;51.384;0.040;2022-12-07T03:13:02;30.33;;;14.45;;
27706;SDS011;36332;51.384;0.040;2022-12-07T03:18:39;25.80;;;12.27;;
27706;SDS011;36332;51.384;0.040;2022-12-07T03:21:10;22.45;;;12.20;;
27706;SDS011;36332;51.384;0.040;2022-12-07T03:23:41;28.80;;;12.82;;
27706;SDS011;36332;51.384;0.040;2022-12-07T03:26:13;27.83;;;13.80;;
27706;SDS011;36332;51.384;0.040;2022-12-07T03:28:46;34.90;;;12.93;;
27706;SDS011;36332;51.384;0.040;2022-12-07T03:31:19;26.88;;;12.73;;
27706;SDS011;36332;51.384;0.040;2022-12-07T03:33:59;29.05;;;12.70;;
27706;SDS011;36332;51.384;0.040;2022-12-07T03:36:40;29.15;;;13.65;;
27706;SDS011;36332;51.384;0.040;2022-12-07T03:39:20;32.55;;;13.63;;
27706;SDS011;36332;51.384;0.040;2022-12-07T03:42:04;23.98;;;11.88;;
27706;SDS011;36332;51.384;0.040;2022-12-07T03:44:34;25.27;;;13.55;;
27706;SDS011;36332;51.384;0.040;2022-12-07T03:47:10;34.10;;;14.60;;
27706;SDS011;36332;51.384;0.040;2022-12-07T03:49:57;27.52;;;13.85;;
27706;SDS011;36332;51.384;0.040;2022-12-07T03:52:30;25.08;;;13.15;;
27706;SDS011;36332;51.384;0.040;2022-12-07T03:55:26;34.47;;;12.85;;
27706;SDS011;36332;51.384;0.040;2022-12-07T03:58:05;30.83;;;12.88;;
27706;SDS011;36332;51.384;0.040;2022-12-07T04:00:37;30.45;;;15.60;;
27706;SDS011;36332;51.384;0.040;2022-12-07T04:03:05;30.88;;;13.40;;
27706;SDS011;36332;51.384;0.040;2022-12-07T04:05:33;32.10;;;14.82;;
27706;SDS011;36332;51.384;0.040;2022-12-07T04:08:01;31.35;;;13.43;;
27706;SDS011;36332;51.384;0.040;2022-12-07T04:10:29;31.33;;;13.63;;
27706;SDS011;36332;51.384;0.040;2022-12-07T04:12:57;36.13;;;14.15;;
27706;SDS011;36332;51.384;0.040;2022-12-07T04:15:24;28.73;;;12.70;;
27706;SDS011;36332;51.384;0.040;2022-12-07T04:17:53;28.33;;;12.43;;
27706;SDS011;36332;51.384;0.040;2022-12-07T04:20:21;35.03;;;17.95;;
27706;SDS011;36332;51.384;0.040;2022-12-07T04:22:49;32.60;;;14.65;;
27706;SDS011;36332;51.384;0.040;2022-12-07T04:25:17;26.65;;;13.60;;
27706;SDS011;36332;51.384;0.040;2022-12-07T04:27:45;29.50;;;14.50;;
27706;SDS011;36332;51.384;0.040;2022-12-07T04:30:13;34.47;;;13.65;;
27706;SDS011;36332;51.384;0.040;2022-12-07T04:32:40;26.13;;;13.75;;
27706;SDS011;36332;51.384;0.040;2022-12-07T04:35:08;25.55;;;13.52;;
27706;SDS011;36332;51.384;0.040;2022-12-07T04:37:36;30.38;;;12.20;;
27706;SDS011;36332;51.384;0.040;2022-12-07T04:40:07;33.55;;;12.52;;
27706;SDS011;36332;51.384;0.040;2022-12-07T04:42:38;24.23;;;12.52;;
27706;SDS011;36332;51.384;0.040;2022-12-07T04:45:06;28.80;;;12.75;;
27706;SDS011;36332;51.384;0.040;2022-12-07T04:47:34;35.72;;;13.18;;
27706;SDS011;36332;51.384;0.040;2022-12-07T04:50:02;24.45;;;12.35;;
27706;SDS011;36332;51.384;0.040;2022-12-07T04:52:31;25.20;;;12.27;;
27706;SDS011;36332;51.384;0.040;2022-12-07T04:54:59;24.83;;;12.82;;
27706;SDS011;36332;51.384;0.040;2022-12-07T04:57:27;33.40;;;13.13;;
27706;SDS011;36332;51.384;0.040;2022-12-07T04:59:54;30.92;;;14.32;;
27706;SDS011;36332;51.384;0.040;2022-12-07T05:02:22;29.63;;;12.60;;
27706;SDS011;36332;51.384;0.040;2022-12-07T05:04:50;27.20;;;12.50;;
27706;SDS011;36332;51.384;0.040;2022-12-07T05:07:18;29.73;;;12.13;;
27706;SDS011;36332;51.384;0.040;2022-12-07T05:09:46;31.02;;;12.05;;
27706;SDS011;36332;51.384;0.040;2022-12-07T05:12:14;27.48;;;11.13;;
27706;SDS011;36332;51.384;0.040;2022-12-07T05:14:41;22.63;;;11.75;;
27706;SDS011;36332;51.384;0.040;2022-12-07T05:17:09;30.27;;;11.45;;
27706;SDS011;36332;51.384;0.040;2022-12-07T05:19:38;31.83;;;11.82;;
27706;SDS011;36332;51.384;0.040;2022-12-07T05:22:06;23.90;;;12.27;;
27706;SDS011;36332;51.384;0.040;2022-12-07T05:24:33;21.13;;;11.40;;
27706;SDS011;36332;51.384;0.040;2022-12-07T05:27:01;22.27;;;12.48;;
27706;SDS011;36332;51.384;0.040;2022-12-07T05:29:28;45.47;;;14.73;;
27706;SDS011;36332;51.384;0.040;2022-12-07T05:31:56;24.40;;;10.63;;
27706;SDS011;36332;51.384;0.040;2022-12-07T05:34:24;30.10;;;11.70;;
27706;SDS011;36332;51.384;0.040;2022-12-07T05:36:51;24.38;;;10.50;;
27706;SDS011;36332;51.384;0.040;2022-12-07T05:39:19;24.77;;;11.30;;
27706;SDS011;36332;51.384;0.040;2022-12-07T05:41:47;23.80;;;9.98;;
27706;SDS011;36332;51.384;0.040;2022-12-07T05:44:34;14.23;;;9.77;;
27706;SDS011;36332;51.384;0.040;2022-12-07T05:47:01;24.35;;;10.55;;
27706;SDS011;36332;51.384;0.040;2022-12-07T05:49:29;25.38;;;10.20;;
27706;SDS011;36332;51.384;0.040;2022-12-07T05:51:57;23.75;;;10.68;;
27706;SDS011;36332;51.384;0.040;2022-12-07T05:54:25;21.05;;;11.00;;
27706;SDS011;36332;51.384;0.040;2022-12-07T05:56:53;19.50;;;10.13;;
27706;SDS011;36332;51.384;0.040;2022-12-07T05:59:21;21.40;;;10.57;;
27706;SDS011;36332;51.384;0.040;2022-12-07T06:04:17;42.75;;;12.18;;
27706;SDS011;36332;51.384;0.040;2022-12-07T06:06:45;30.67;;;12.07;;
27706;SDS011;36332;51.384;0.040;2022-12-07T06:09:13;22.15;;;10.32;;
27706;SDS011;36332;51.384;0.040;2022-12-07T06:11:41;25.23;;;11.32;;
27706;SDS011;36332;51.384;0.040;2022-12-07T06:14:28;25.55;;;11.20;;
27706;SDS011;36332;51.384;0.040;2022-12-07T06:16:56;23.83;;;11.15;;
27706;SDS011;36332;51.384;0.040;2022-12-07T06:19:23;23.00;;;10.75;;
27706;SDS011;36332;51.384;0.040;2022-12-07T06:21:51;26.45;;;10.75;;
27706;SDS011;36332;51.384;0.040;2022-12-07T06:24:19;25.48;;;9.88;;
27706;SDS011;36332;51.384;0.040;2022-12-07T06:26:47;20.13;;;9.30;;
27706;SDS011;36332;51.384;0.040;2022-12-07T06:29:15;22.38;;;12.18;;
27706;SDS011;36332;51.384;0.040;2022-12-07T06:31:44;29.88;;;10.00;;
27706;SDS011;36332;51.384;0.040;2022-12-07T06:34:13;17.00;;;10.48;;
27706;SDS011;36332;51.384;0.040;2022-12-07T06:36:42;27.42;;;11.35;;
27706;SDS011;36332;51.384;0.040;2022-12-07T06:39:11;20.77;;;9.95;;
27706;SDS011;36332;51.384;0.040;2022-12-07T06:41:39;25.77;;;10.95;;
27706;SDS011;36332;51.384;0.040;2022-12-07T06:44:07;27.13;;;11.77;;
27706;SDS011;36332;51.384;0.040;2022-12-07T06:46:35;24.95;;;11.02;;
27706;SDS011;36332;51.384;0.040;2022-12-07T06:49:04;20.27;;;9.95;;
27706;SDS011;36332;51.384;0.040;2022-12-07T06:51:32;30.38;;;10.50;;
27706;SDS011;36332;51.384;0.040;2022-12-07T06:54:03;26.77;;;11.18;;
27706;SDS011;36332;51.384;0.040;2022-12-07T06:56:31;21.55;;;10.82;;
27706;SDS011;36332;51.384;0.040;2022-12-07T06:58:59;33.00;;;12.82;;
27706;SDS011;36332;51.384;0.040;2022-12-07T07:01:27;31.65;;;12.13;;
27706;SDS011;36332;51.384;0.040;2022-12-07T07:03:55;27.35;;;12.02;;
27706;SDS011;36332;51.384;0.040;2022-12-07T07:06:23;22.35;;;11.65;;
27706;SDS011;36332;51.384;0.040;2022-12-07T07:08:52;27.38;;;12.27;;
27706;SDS011;36332;51.384;0.040;2022-12-07T07:11:20;26.42;;;12.75;;
27706;SDS011;36332;51.384;0.040;2022-12-07T07:13:48;30.27;;;11.95;;
27706;SDS011;36332;51.384;0.040;2022-12-07T07:16:16;31.15;;;13.13;;
27706;SDS011;36332;51.384;0.040;2022-12-07T07:18:44;24.48;;;11.00;;
27706;SDS011;36332;51.384;0.040;2022-12-07T07:21:12;19.80;;;11.13;;
27706;SDS011;36332;51.384;0.040;2022-12-07T07:23:40;35.72;;;12.20;;
27706;SDS011;36332;51.384;0.040;2022-12-07T07:26:08;24.05;;;11.68;;
27706;SDS011;36332;51.384;0.040;2022-12-07T07:28:36;26.67;;;12.68;;
27706;SDS011;36332;51.384;0.040;2022-12-07T07:31:04;25.70;;;12.60;;
27706;SDS011;36332;51.384;0.040;2022-12-07T07:33:32;25.27;;;11.52;;
27706;SDS011;36332;51.384;0.040;2022-12-07T07:36:00;25.65;;;12.98;;
27706;SDS011;36332;51.384;0.040;2022-12-07T07:38:28;24.85;;;12.70;;
27706;SDS011;36332;51.384;0.040;2022-12-07T07:40:56;28.63;;;13.05;;
27706;SDS011;36332;51.384;0.040;2022-12-07T07:43:24;31.00;;;11.80;;
27706;SDS011;36332;51.384;0.040;2022-12-07T07:45:52;27.08;;;11.35;;
27706;SDS011;36332;51.384;0.040;2022-12-07T07:48:21;22.00;;;11.40;;
27706;SDS011;36332;51.384;0.040;2022-12-07T07:50:51;36.03;;;14.52;;
27706;SDS011;36332;51.384;0.040;2022-12-07T07:53:20;32.80;;;12.63;;
27706;SDS011;36332;51.384;0.040;2022-12-07T07:55:54;28.30;;;13.65;;
27706;SDS011;36332;51.384;0.040;2022-12-07T07:58:22;33.20;;;13.95;;
27706;SDS011;36332;51.384;0.040;2022-12-07T08:00:50;24.88;;;12.90;;
27706;SDS011;36332;51.384;0.040;2022-12-07T08:03:19;24.67;;;14.13;;
27706;SDS011;36332;51.384;0.040;2022-12-07T08:05:50;29.10;;;11.90;;
27706;SDS011;36332;51.384;0.040;2022-12-07T08:08:18;31.58;;;13.38;;
27706;SDS011;36332;51.384;0.040;2022-12-07T08:10:46;28.88;;;12.35;;
27706;SDS011;36332;51.384;0.040;2022-12-07T08:13:17;27.92;;;12.18;;
27706;SDS011;36332;51.384;0.040;2022-12-07T08:15:47;37.58;;;13.25;;
27706;SDS011;36332;51.384;0.040;2022-12-07T08:18:15;24.88;;;12.68;;
27706;SDS011;36332;51.384;0.040;2022-12-07T08:20:43;27.63;;;12.98;;
27706;SDS011;36332;51.384;0.040;2022-12-07T08:23:11;30.42;;;10.85;;
27706;SDS011;36332;51.384;0.040;2022-12-07T08:25:39;23.10;;;11.30;;
27706;SDS011;36332;51.384;0.040;2022-12-07T08:28:07;31.95;;;11.20;;
27706;SDS011;36332;51.384;0.040;2022-12-07T08:30:35;20.50;;;9.82;;
27706;SDS011;36332;51.384;0.040;2022-12-07T08:33:03;32.08;;;11.40;;
27706;SDS011;36332;51.384;0.040;2022-12-07T08:35:32;18.02;;;9.88;;
27706;SDS011;36332;51.384;0.040;2022-12-07T08:38:01;24.10;;;11.38;;
27706;SDS011;36332;51.384;0.040;2022-12-07T08:40:30;23.85;;;11.15;;
27706;SDS011;36332;51.384;0.040;2022-12-07T08:42:58;19.25;;;10.52;;
27706;SDS011;36332;51.384;0.040;2022-12-07T08:45:26;25.35;;;11.77;;
27706;SDS011;36332;51.384;0.040;2022-12-07T08:48:06;28.30;;;12.45;;
27706;SDS011;36332;51.384;0.040;2022-12-07T08:50:38;28.33;;;11.18;;
27706;SDS011;36332;51.384;0.040;2022-12-07T08:53:13;28.93;;;12.70;;
27706;SDS011;36332;51.384;0.040;2022-12-07T08:55:41;23.67;;;10.65;;
27706;SDS011;36332;51.384;0.040;2022-12-07T08:58:11;23.00;;;11.75;;
27706;SDS011;36332;51.384;0.040;2022-12-07T09:00:39;25.15;;;11.80;;
27706;SDS011;36332;51.384;0.040;2022-12-07T09:03:07;25.83;;;11.88;;
27706;SDS011;36332;51.384;0.040;2022-12-07T09:05:36;27.90;;;12.27;;
27706;SDS011;36332;51.384;0.040;2022-12-07T09:08:04;18.85;;;9.82;;
27706;SDS011;36332;51.384;0.040;2022-12-07T09:10:32;19.83;;;9.18;;
27706;SDS011;36332;51.384;0.040;2022-12-07T09:13:00;25.80;;;10.80;;
27706;SDS011;36332;51.384;0.040;2022-12-07T09:15:29;28.40;;;10.38;;
27706;SDS011;36332;51.384;0.040;2022-12-07T09:17:58;17.70;;;8.77;;
27706;SDS011;36332;51.384;0.040;2022-12-07T09:20:26;17.95;;;8.85;;
27706;SDS011;36332;51.384;0.040;2022-12-07T09:22:55;20.38;;;9.68;;
27706;SDS011;36332;51.384;0.040;2022-12-07T09:25:22;22.00;;;9.48;;
27706;SDS011;36332;51.384;0.040;2022-12-07T09:27:57;17.35;;;10.05;;
27706;SDS011;36332;51.384;0.040;2022-12-07T09:30:26;16.45;;;9.20;;
27706;SDS011;36332;51.384;0.040;2022-12-07T09:32:55;22.40;;;11.05;;
27706;SDS011;36332;51.384;0.040;2022-12-07T09:35:24;20.60;;;12.68;;
27706;SDS011;36332;51.384;0.040;2022-12-07T09:37:52;25.08;;;9.60;;
27706;SDS011;36332;51.384;0.040;2022-12-07T09:40:21;24.40;;;9.40;;
27706;SDS011;36332;51.384;0.040;2022-12-07T09:42:51;21.17;;;9.35;;
27706;SDS011;36332;51.384;0.040;2022-12-07T09:45:26;23.90;;;8.82;;
27706;SDS011;36332;51.384;0.040;2022-12-07T09:48:02;19.48;;;8.98;;
27706;SDS011;36332;51.384;0.040;2022-12-07T09:50:30;15.48;;;8.05;;
27706;SDS011;36332;51.384;0.040;2022-12-07T09:53:19;16.77;;;8.25;;
27706;SDS011;36332;51.384;0.040;2022-12-07T09:55:53;17.67;;;8.65;;
27706;SDS011;36332;51.384;0.040;2022-12-07T09:58:23;16.25;;;8.43;;
27706;SDS011;36332;51.384;0.040;2022-12-07T10:00:53;28.77;;;8.85;;
27706;SDS011;36332;51.384;0.040;2022-12-07T10:03:27;22.23;;;9.48;;
27706;SDS011;36332;51.384;0.040;2022-12-07T10:05:55;20.75;;;9.07;;
27706;SDS011;36332;51.384;0.040;2022-12-07T10:08:24;20.23;;;9.70;;
27706;SDS011;36332;51.384;0.040;2022-12-07T10:10:54;15.30;;;9.48;;
27706;SDS011;36332;51.384;0.040;2022-12-07T10:16:40;24.05;;;9.80;;
27706;SDS011;36332;51.384;0.040;2022-12-07T10:19:19;20.02;;;9.25;;
27706;SDS011;36332;51.384;0.040;2022-12-07T10:22:12;21.25;;;9.98;;
27706;SDS011;36332;51.384;0.040;2022-12-07T10:24:43;18.88;;;9.68;;
27706;SDS011;36332;51.384;0.040;2022-12-07T10:27:21;22.17;;;9.85;;
27706;SDS011;36332;51.384;0.040;2022-12-07T10:29:53;15.85;;;8.93;;
27706;SDS011;36332;51.384;0.040;2022-12-07T10:32:32;33.35;;;12.00;;
27706;SDS011;36332;51.384;0.040;2022-12-07T10:37:50;26.13;;;9.90;;
27706;SDS011;36332;51.384;0.040;2022-12-07T10:40:37;16.45;;;8.32;;
27706;SDS011;36332;51.384;0.040;2022-12-07T10:46:24;20.00;;;8.55;;
27706;SDS011;36332;51.384;0.040;2022-12-07T10:49:03;17.15;;;8.80;;
27706;SDS011;36332;51.384;0.040;2022-12-07T10:52:18;21.55;;;8.45;;
27706;SDS011;36332;51.384;0.040;2022-12-07T10:55:04;21.02;;;8.55;;
27706;SDS011;36332;51.384;0.040;2022-12-07T11:00:12;20.15;;;8.18;;
27706;SDS011;36332;51.384;0.040;2022-12-07T11:05:27;18.95;;;9.70;;
27706;SDS011;36332;51.384;0.040;2022-12-07T11:08:09;20.80;;;9.05;;
27706;SDS011;36332;51.384;0.040;2022-12-07T11:11:21;20.80;;;8.65;;
27706;SDS011;36332;51.384;0.040;2022-12-07T11:14:01;18.02;;;7.97;;
27706;SDS011;36332;51.384;0.040;2022-12-07T11:16:37;21.50;;;8.90;;
27706;SDS011;36332;51.384;0.040;2022-12-07T11:22:23;19.38;;;8.50;;
27706;SDS011;36332;51.384;0.040;2022-12-07T11:25:14;16.27;;;8.68;;
27706;SDS011;36332;51.384;0.040;2022-12-07T11:30:54;23.25;;;7.90;;
27706;SDS011;36332;51.384;0.040;2022-12-07T11:33:27;14.15;;;8.60;;
27706;SDS011;36332;51.384;0.040;2022-12-07T11:41:01;25.05;;;9.32;;
27706;SDS011;36332;51.384;0.040;2022-12-07T11:43:50;24.20;;;8.60;;
27706;SDS011;36332;51.384;0.040;2022-12-07T11:46:24;22.45;;;9.23;;
27706;SDS011;36332;51.384;0.040;2022-12-07T11:48:58;15.90;;;8.98;;
27706;SDS011;36332;51.384;0.040;2022-12-07T11:51:56;22.48;;;8.88;;
27706;SDS011;36332;51.384;0.040;2022-12-07T11:54:29;20.75;;;9.10;;
27706;SDS011;36332;51.384;0.040;2022-12-07T11:57:04;17.35;;;8.77;;
27706;SDS011;36332;51.384;0.040;2022-12-07T11:59:47;18.67;;;9.20;;
27706;SDS011;36332;51.384;0.040;2022-12-07T12:02:31;25.17;;;9.48;;
27706;SDS011;36332;51.384;0.040;2022-12-07T12:07:43;20.63;;;9.30;;
27706;SDS011;36332;51.384;0.040;2022-12-07T12:13:50;19.02;;;8.77;;
27706;SDS011;36332;51.384;0.040;2022-12-07T12:19:34;20.25;;;9.23;;
27706;SDS011;36332;51.384;0.040;2022-12-07T12:22:18;19.02;;;8.55;;
27706;SDS011;36332;51.384;0.040;2022-12-07T12:24:49;21.25;;;8.55;;
27706;SDS011;36332;51.384;0.040;2022-12-07T12:29:51;14.85;;;7.93;;
27706;SDS011;36332;51.384;0.040;2022-12-07T12:32:21;13.63;;;8.00;;
27706;SDS011;36332;51.384;0.040;2022-12-07T12:40:47;14.60;;;7.93;;
27706;SDS011;36332;51.384;0.040;2022-12-07T12:49:13;16.98;;;7.00;;
27706;SDS011;36332;51.384;0.040;2022-12-07T12:51:54;13.73;;;7.25;;
27706;SDS011;36332;51.384;0.040;2022-12-07T12:54:28;13.57;;;6.95;;
27706;SDS011;36332;51.384;0.040;2022-12-07T12:59:56;24.70;;;7.77;;
27706;SDS011;36332;51.384;0.040;2022-12-07T13:02:26;11.57;;;7.60;;
27706;SDS011;36332;51.384;0.040;2022-12-07T13:05:00;12.82;;;7.50;;
27706;SDS011;36332;51.384;0.040;2022-12-07T13:10:21;13.38;;;7.88;;
27706;SDS011;36332;51.384;0.040;2022-12-07T13:15:39;16.17;;;8.02;;
27706;SDS011;36332;51.384;0.040;2022-12-07T13:18:25;17.15;;;8.63;;
27706;SDS011;36332;51.384;0.040;2022-12-07T13:23:36;19.08;;;8.48;;
27706;SDS011;36332;51.384;0.040;2022-12-07T13:31:44;18.35;;;9.02;;
27706;SDS011;36332;51.384;0.040;2022-12-07T13:36:59;19.30;;;9.45;;
27706;SDS011;36332;51.384;0.040;2022-12-07T13:39:29;18.67;;;8.27;;
27706;SDS011;36332;51.384;0.040;2022-12-07T13:41:58;17.30;;;8.05;;
27706;SDS011;36332;51.384;0.040;2022-12-07T13:44:27;19.63;;;8.35;;
27706;SDS011;36332;51.384;0.040;2022-12-07T13:49:28;18.52;;;8.77;;
27706;SDS011;36332;51.384;0.040;2022-12-07T13:52:12;23.38;;;9.68;;
27706;SDS011;36332;51.384;0.040;2022-12-07T13:54:49;23.52;;;8.93;;
27706;SDS011;36332;51.384;0.040;2022-12-07T13:57:18;17.92;;;8.73;;
27706;SDS011;36332;51.384;0.040;2022-12-07T13:59:46;16.15;;;9.05;;
27706;SDS011;36332;51.384;0.040;2022-12-07T14:05:28;22.05;;;8.30;;
27706;SDS011;36332;51.384;0.040;2022-12-07T14:08:00;25.75;;;10.45;;
27706;SDS011;36332;51.384;0.040;2022-12-07T14:10:29;16.67;;;7.80;;
27706;SDS011;36332;51.384;0.040;2022-12-07T14:12:59;17.23;;;8.75;;
27706;SDS011;36332;51.384;0.040;2022-12-07T14:15:29;19.33;;;8.07;;
27706;SDS011;36332;51.384;0.040;2022-12-07T14:17:59;17.10;;;8.52;;
27706;SDS011;36332;51.384;0.040;2022-12-07T14:22:59;19.20;;;9.30;;
27706;SDS011;36332;51.384;0.040;2022-12-07T14:25:46;22.40;;;8.43;;
27706;SDS011;36332;51.384;0.040;2022-12-07T14:28:26;16.85;;;6.70;;
27706;SDS011;36332;51.384;0.040;2022-12-07T14:30:59;16.95;;;7.32;;
27706;SDS011;36332;51.384;0.040;2022-12-07T14:33:28;14.02;;;6.60;;
27706;SDS011;36332;51.384;0.040;2022-12-07T14:35:56;16.08;;;5.95;;
27706;SDS011;36332;51.384;0.040;2022-12-07T14:38:25;20.52;;;6.68;;
27706;SDS011;36332;51.384;0.040;2022-12-07T14:40:53;20.05;;;6.47;;
27706;SDS011;36332;51.384;0.040;2022-12-07T14:43:42;15.75;;;6.18;;
27706;SDS011;36332;51.384;0.040;2022-12-07T14:46:26;13.02;;;5.90;;
27706;SDS011;36332;51.384;0.040;2022-12-07T14:48:54;17.92;;;7.07;;
27706;SDS011;36332;51.384;0.040;2022-12-07T14:51:42;16.80;;;6.80;;
27706;SDS011;36332;51.384;0.040;2022-12-07T14:54:32;21.77;;;6.80;;
27706;SDS011;36332;51.384;0.040;2022-12-07T14:57:01;22.35;;;6.95;;
27706;SDS011;36332;51.384;0.040;2022-12-07T14:59:29;26.33;;;9.88;;
27706;SDS011;36332;51.384;0.040;2022-12-07T15:01:57;26.15;;;9.63;;
27706;SDS011;36332;51.384;0.040;2022-12-07T15:04:25;29.20;;;10.90;;
27706;SDS011;36332;51.384;0.040;2022-12-07T15:07:00;35.40;;;12.60;;
27706;SDS011;36332;51.384;0.040;2022-12-07T15:09:30;30.92;;;12.70;;
27706;SDS011;36332;51.384;0.040;2022-12-07T15:11:58;31.33;;;12.32;;
27706;SDS011;36332;51.384;0.040;2022-12-07T15:14:26;28.05;;;10.18;;
27706;SDS011;36332;51.384;0.040;2022-12-07T15:16:54;22.15;;;10.40;;
27706;SDS011;36332;51.384;0.040;2022-12-07T15:19:42;26.63;;;10.65;;
27706;SDS011;36332;51.384;0.040;2022-12-07T15:22:10;37.38;;;13.35;;
27706;SDS011;36332;51.384;0.040;2022-12-07T15:24:38;49.72;;;12.70;;
27706;SDS011;36332;51.384;0.040;2022-12-07T15:27:06;29.73;;;9.98;;
27706;SDS011;36332;51.384;0.040;2022-12-07T15:29:34;35.90;;;9.55;;
27706;SDS011;36332;51.384;0.040;2022-12-07T15:32:02;22.05;;;9.82;;
27706;SDS011;36332;51.384;0.040;2022-12-07T15:34:30;28.23;;;9.65;;
27706;SDS011;36332;51.384;0.040;2022-12-07T15:37:06;21.67;;;8.73;;
27706;SDS011;36332;51.384;0.040;2022-12-07T15:39:35;30.27;;;8.13;;
27706;SDS011;36332;51.384;0.040;2022-12-07T15:42:03;24.45;;;8.38;;
27706;SDS011;36332;51.384;0.040;2022-12-07T15:44:31;24.25;;;9.50;;
27706;SDS011;36332;51.384;0.040;2022-12-07T15:47:18;28.13;;;7.95;;
27706;SDS011;36332;51.384;0.040;2022-12-07T15:49:47;22.92;;;8.57;;
27706;SDS011;36332;51.384;0.040;2022-12-07T15:52:15;24.80;;;8.98;;
27706;SDS011;36332;51.384;0.040;2022-12-07T15:54:43;17.92;;;8.30;;
27706;SDS011;36332;51.384;0.040;2022-12-07T15:57:11;14.50;;;8.07;;
27706;SDS011;36332;51.384;0.040;2022-12-07T15:59:39;15.70;;;8.00;;
27706;SDS011;36332;51.384;0.040;2022-12-07T16:02:08;21.27;;;9.60;;
27706;SDS011;36332;51.384;0.040;2022-12-07T16:04:37;31.85;;;9.10;;
27706;SDS011;36332;51.384;0.040;2022-12-07T16:07:05;16.75;;;7.45;;
27706;SDS011;36332;51.384;0.040;2022-12-07T16:09:35;25.92;;;8.82;;
27706;SDS011;36332;51.384;0.040;2022-12-07T16:12:03;27.40;;;10.43;;
27706;SDS011;36332;51.384;0.040;2022-12-07T16:14:31;20.27;;;9.75;;
27706;SDS011;36332;51.384;0.040;2022-12-07T16:17:00;17.75;;;10.18;;
27706;SDS011;36332;51.384;0.040;2022-12-07T16:19:28;18.60;;;10.02;;
27706;SDS011;36332;51.384;0.040;2022-12-07T16:21:56;27.33;;;10.48;;
27706;SDS011;36332;51.384;0.040;2022-12-07T16:24:24;23.80;;;10.05;;
27706;SDS011;36332;51.384;0.040;2022-12-07T16:26:53;22.63;;;9.63;;
27706;SDS011;36332;51.384;0.040;2022-12-07T16:29:21;24.50;;;9.70;;
27706;SDS011;36332;51.384;0.040;2022-12-07T16:31:51;20.52;;;8.95;;
27706;SDS011;36332;51.384;0.040;2022-12-07T16:34:19;18.02;;;9.23;;
27706;SDS011;36332;51.384;0.040;2022-12-07T16:36:47;21.80;;;9.25;;
27706;SDS011;36332;51.384;0.040;2022-12-07T16:39:32;14.82;;;8.40;;
27706;SDS011;36332;51.384;0.040;2022-12-07T16:42:02;31.83;;;12.65;;
27706;SDS011;36332;51.384;0.040;2022-12-07T16:44:31;26.92;;;11.45;;
27706;SDS011;36332;51.384;0.040;2022-12-07T16:47:00;18.67;;;10.55;;
27706;SDS011;36332;51.384;0.040;2022-12-07T16:49:28;26.13;;;11.10;;